Time;durP1;ratioP1;P1;durP2;ratioP2;P2;SDS_P1;SDS_P2;PMS_P1;PMS_P2;Temp;Humidity;BMP_temperature;BMP_pressure;BME280_temperature;BME280_humidity;BME280_pressure;Samples;Min_cycle;Max_cycle;Signal;HPM_P1;HPM_P2
2021/05/21 20:11:56;;;;;;;;;1.00;1.00;;;;;24.54;36.70;100075.53;5082624;27;45296;-45
2021/05/21 20:14:31;;;;;;;;;2.00;0.33;;;;;24.84;36.18;100084.06;5081446;27;45405;-50
2021/05/21 20:16:59;;;;;;;;;2.00;1.33;;;;;25.04;35.94;100079.94;5088054;27;45392;-42
2021/05/21 20:19:31;;;;;;;;;0.00;0.00;;;;;25.17;35.58;100083.41;5089041;27;46219;-38
2021/05/21 20:21:57;;;;;;;;;1.67;1.67;;;;;25.25;35.16;100075.72;5076549;27;45376;-42
2021/05/21 20:24:25;;;;;;;;;2.00;2.00;;;;;25.36;35.35;100068.75;5091878;27;45889;-45
2021/05/21 20:26:55;;;;;;;;;2.33;1.67;;;;;25.47;34.77;100082.13;5084224;27;45485;-41
2021/05/21 20:42:51;;;;;;;;;1.67;1.67;;;;;25.72;33.82;100083.75;5083252;27;45683;-38
2021/05/21 21:01:13;;;;;;;;;1.67;1.67;;;;;25.50;33.24;100096.97;5080705;27;45739;-40
2021/05/21 21:14:04;;;;;;;;;1.33;0.33;;;;;24.68;34.06;100106.34;5064948;28;45679;-62
2021/05/21 21:16:47;;;;;;;;;1.00;1.00;;;;;24.49;34.55;100110.34;5060568;28;45433;-63
2021/05/21 21:19:27;;;;;;;;;0.00;0.00;;;;;24.34;35.09;100116.72;5077550;28;45484;-65
2021/05/21 21:32:47;;;;;;;;;1.00;1.00;;;;;23.75;35.47;100113.59;5084166;28;45572;-63
2021/05/21 21:53:09;;;;;;;;;0.67;0.00;;;;;23.29;36.43;100127.22;5070058;27;46116;-58
2021/05/21 21:58:21;;;;;;;;;1.00;1.00;;;;;23.22;36.83;100125.91;5074395;28;45298;-69
2021/05/21 22:03:55;;;;;;;;;1.00;1.00;;;;;23.16;36.82;100121.00;5076729;28;47289;-70
2021/05/21 22:14:02;;;;;;;;;0.67;0.67;;;;;23.07;36.85;100136.50;5072641;28;45226;-65
2021/05/21 22:24:27;;;;;;;;;0.00;0.00;;;;;22.98;36.55;100140.63;5074831;28;45964;-60
2021/05/21 22:26:52;;;;;;;;;1.67;1.67;;;;;22.98;36.86;100131.81;5068783;28;45263;-64
2021/05/21 22:29:18;;;;;;;;;1.00;1.00;;;;;22.96;37.21;100139.00;5072053;28;45373;-66
2021/05/21 22:31:43;;;;;;;;;2.00;2.00;;;;;22.95;36.61;100148.75;5080444;28;45283;-64
2021/05/21 22:34:10;;;;;;;;;2.33;0.33;;;;;22.94;36.75;100141.75;5078770;28;65710;-64
2021/05/21 22:36:39;;;;;;;;;2.00;2.00;;;;;22.94;37.06;100146.19;5075132;27;45433;-62
2021/05/21 22:39:11;;;;;;;;;2.00;2.00;;;;;22.91;36.86;100139.28;5074320;28;45519;-65
2021/05/21 22:41:41;;;;;;;;;1.33;0.67;;;;;22.91;36.47;100133.16;5077112;28;45420;-65
2021/05/21 22:44:06;;;;;;;;;2.00;1.00;;;;;22.89;37.20;100141.19;5071598;28;47232;-66
2021/05/21 22:46:32;;;;;;;;;2.67;2.67;;;;;22.88;36.70;100142.13;5071624;28;45275;-67
2021/05/21 22:48:57;;;;;;;;;3.33;1.00;;;;;22.87;37.11;100140.44;5066560;28;45379;-61
2021/05/21 22:51:23;;;;;;;;;1.67;1.67;;;;;22.87;37.16;100150.19;5070960;28;45632;-62
2021/05/21 22:53:50;;;;;;;;;3.00;1.33;;;;;22.86;36.70;100146.66;5075267;27;46329;-61
2021/05/21 22:56:15;;;;;;;;;2.00;1.00;;;;;22.84;36.82;100136.19;5072830;28;45390;-61
2021/05/21 22:58:42;;;;;;;;;3.67;1.67;;;;;22.83;36.71;100139.78;5069611;28;49935;-65
2021/05/21 23:01:07;;;;;;;;;1.00;1.00;;;;;22.82;37.20;100130.13;5072633;28;45592;-63
2021/05/21 23:03:33;;;;;;;;;1.67;1.00;;;;;22.83;37.15;100137.13;5073063;27;47654;-59
2021/05/21 23:05:59;;;;;;;;;1.67;1.00;;;;;22.82;37.16;100134.59;5071042;28;45419;-60
2021/05/21 23:08:24;;;;;;;;;2.00;2.00;;;;;22.79;36.64;100125.03;5070732;28;45293;-60
2021/05/21 23:10:50;;;;;;;;;2.00;2.00;;;;;22.79;36.88;100135.63;5073610;28;45432;-60
2021/05/21 23:13:16;;;;;;;;;1.33;1.33;;;;;22.78;36.83;100128.63;5072938;28;45469;-61
2021/05/21 23:15:42;;;;;;;;;3.67;1.00;;;;;22.78;37.02;100133.91;5071686;28;45326;-61
2021/05/21 23:18:08;;;;;;;;;1.67;1.67;;;;;22.76;36.52;100135.84;5070344;28;45445;-65
2021/05/21 23:20:34;;;;;;;;;0.67;0.67;;;;;22.77;36.75;100139.31;5069199;28;45440;-68
2021/05/21 23:22:59;;;;;;;;;3.67;1.00;;;;;22.76;36.90;100127.91;5078096;28;51044;-64
2021/05/21 23:25:24;;;;;;;;;1.00;1.00;;;;;22.76;37.06;100129.69;5070729;28;45427;-62
2021/05/21 23:27:50;;;;;;;;;3.00;3.00;;;;;22.75;36.98;100133.28;5074345;28;45489;-58
2021/05/21 23:30:16;;;;;;;;;2.67;2.00;;;;;22.74;37.33;100139.50;5073452;28;48099;-57
2021/05/21 23:32:41;;;;;;;;;1.67;1.67;;;;;22.74;37.29;100127.16;5069912;28;45993;-63
2021/05/21 23:35:07;;;;;;;;;1.00;1.00;;;;;22.74;36.99;100131.56;5069850;28;45460;-63
2021/05/21 23:37:32;;;;;;;;;1.00;1.00;;;;;22.73;37.20;100130.72;5070923;28;45228;-62
2021/05/21 23:39:57;;;;;;;;;2.00;0.00;;;;;22.73;37.30;100133.38;5072590;28;45532;-67
2021/05/21 23:42:23;;;;;;;;;1.00;1.00;;;;;22.72;36.81;100133.47;5074009;28;46333;-63
2021/05/21 23:44:48;;;;;;;;;1.00;1.00;;;;;22.69;37.17;100119.47;5061996;28;49851;-61
2021/05/21 23:47:14;;;;;;;;;1.67;1.67;;;;;22.69;36.98;100122.13;5059950;28;45561;-62
2021/05/21 23:49:39;;;;;;;;;1.00;1.00;;;;;22.69;36.76;100129.22;5075460;28;45430;-63
2021/05/21 23:52:05;;;;;;;;;1.00;1.00;;;;;22.67;37.02;100124.03;5074650;28;46144;-63
2021/05/21 23:54:30;;;;;;;;;3.00;2.00;;;;;22.66;36.79;100124.97;5082014;27;45379;-62
2021/05/21 23:56:55;;;;;;;;;1.33;1.33;;;;;22.65;36.84;100120.63;5051872;28;45354;-62
2021/05/21 23:59:21;;;;;;;;;2.00;2.00;;;;;22.65;36.99;100136.50;5081371;28;45419;-62
